createdAt,value
2019-04-26T00:01:23.422Z,35.70
2019-04-26T00:04:16.548Z,36.40
2019-04-26T00:07:10.456Z,36.00
2019-04-26T00:10:07.231Z,36.80
2019-04-26T00:13:16.553Z,35.90
2019-04-26T00:16:30.400Z,37.10
2019-04-26T00:19:22.765Z,36.90
2019-04-26T00:22:15.482Z,37.40
2019-04-26T00:25:08.269Z,37.20
2019-04-26T00:28:01.571Z,37.70
2019-04-26T00:30:53.912Z,37.90
2019-04-26T00:33:46.668Z,37.90
2019-04-26T00:36:39.618Z,37.90
2019-04-26T00:39:32.043Z,38.10
2019-04-26T00:42:24.955Z,38.10
2019-04-26T00:45:18.694Z,38.20
2019-04-26T00:48:12.545Z,38.20
2019-04-26T00:51:07.156Z,38.20
2019-04-26T00:54:00.295Z,38.40
2019-04-26T00:56:55.105Z,38.40
2019-04-26T00:59:48.465Z,38.40
2019-04-26T01:02:52.813Z,38.50
2019-04-26T01:05:45.540Z,38.90
2019-04-26T01:08:38.228Z,38.80
2019-04-26T01:11:30.698Z,39.20
2019-04-26T01:14:24.088Z,39.40
2019-04-26T01:17:18.606Z,41.40
2019-04-26T01:20:13.141Z,41.20
2019-04-26T01:23:07.257Z,42.20
2019-04-26T01:26:04.297Z,42.70
2019-04-26T01:29:00.031Z,42.30
2019-04-26T01:31:56.877Z,42.50
2019-04-26T01:34:51.216Z,42.50
2019-04-26T01:37:44.654Z,42.40
2019-04-26T01:40:38.394Z,42.50
2019-04-26T01:43:59.088Z,42.50
2019-04-26T01:46:53.661Z,42.70
2019-04-26T01:49:48.469Z,42.80
2019-04-26T01:52:42.268Z,42.50
2019-04-26T01:55:38.861Z,42.40
2019-04-26T01:58:32.038Z,42.40
2019-04-26T02:01:37.317Z,42.30
2019-04-26T02:04:32.869Z,42.30
2019-04-26T02:07:42.014Z,42.50
2019-04-26T02:10:36.016Z,42.70
2019-04-26T02:13:30.981Z,42.30
2019-04-26T02:16:23.782Z,42.30
2019-04-26T02:19:17.031Z,42.50
2019-04-26T02:22:27.787Z,42.30
2019-04-26T02:25:21.367Z,42.70
2019-04-26T02:28:15.626Z,42.60
2019-04-26T02:31:09.521Z,43.00
2019-04-26T02:34:02.808Z,43.10
2019-04-26T02:36:58.942Z,43.10
2019-04-26T02:39:51.399Z,43.30
2019-04-26T02:42:45.178Z,43.30
2019-04-26T02:46:16.518Z,43.40
2019-04-26T02:49:27.465Z,43.40
2019-04-26T02:52:22.736Z,43.50
2019-04-26T02:55:17.903Z,43.70
2019-04-26T02:58:11.370Z,43.60
2019-04-26T03:01:04.468Z,43.70
2019-04-26T03:03:57.861Z,44.00
2019-04-26T03:07:02.850Z,44.20
2019-04-26T03:09:46.311Z,44.20
2019-04-26T03:12:39.875Z,44.40
2019-04-26T03:15:51.470Z,44.50
2019-04-26T03:19:07.154Z,44.80
2019-04-26T03:22:11.748Z,44.30
2019-04-26T03:25:09.654Z,44.40
2019-04-26T03:28:06.483Z,44.40
2019-04-26T03:31:06.108Z,43.90
2019-04-26T03:34:21.052Z,43.30
2019-04-26T03:37:44.746Z,44.40
2019-04-26T03:40:58.717Z,44.30
2019-04-26T03:44:03.952Z,45.10
2019-04-26T03:46:59.258Z,45.50
2019-04-26T03:49:58.696Z,45.60
2019-04-26T03:53:13.733Z,45.60
2019-04-26T03:56:21.087Z,45.60
2019-04-26T03:59:32.032Z,45.70
2019-04-26T04:02:46.890Z,45.80
2019-04-26T04:05:47.815Z,46.10
2019-04-26T04:08:48.207Z,45.20
2019-04-26T04:12:10.070Z,45.40
2019-04-26T04:14:54.910Z,45.50
2019-04-26T04:17:54.361Z,45.40
2019-04-26T04:21:39.386Z,45.50
2019-04-26T04:24:45.554Z,45.20
2019-04-26T04:27:45.188Z,45.40
2019-04-26T04:30:50.795Z,45.50
2019-04-26T04:33:58.901Z,45.50
2019-04-26T04:36:53.600Z,45.10
2019-04-26T04:40:04.127Z,45.10
2019-04-26T04:43:11.483Z,45.10
2019-04-26T04:46:41.730Z,44.90
2019-04-26T04:49:52.764Z,45.00
2019-04-26T04:53:51.620Z,45.00
2019-04-26T05:00:58.553Z,45.20
2019-04-26T05:07:49.406Z,45.30
2019-04-26T05:47:05.401Z,46.10
2019-04-26T07:12:20.787Z,40.50
2019-04-26T07:15:52.565Z,40.60
2019-04-26T07:19:05.612Z,40.60
2019-04-26T07:26:15.039Z,40.30
2019-04-26T07:29:42.812Z,40.40
2019-04-26T07:32:54.378Z,40.20
2019-04-26T07:36:03.763Z,40.80
2019-04-26T07:43:16.910Z,39.90
2019-04-26T07:46:23.464Z,39.80
2019-04-26T07:49:41.515Z,39.80
2019-04-26T07:52:53.871Z,39.50
2019-04-26T07:55:54.784Z,39.60
2019-04-26T07:59:08.960Z,39.50
2019-04-26T08:02:27.489Z,39.80
2019-04-26T08:05:27.974Z,39.90
2019-04-26T08:08:34.930Z,39.90
2019-04-26T08:11:39.374Z,39.70
2019-04-26T08:15:07.710Z,39.80
2019-04-26T08:22:40.422Z,39.50
2019-04-26T08:25:45.047Z,39.40
2019-04-26T08:32:56.155Z,39.10
2019-04-26T08:36:12.807Z,39.00
2019-04-26T08:39:51.945Z,39.10
2019-04-26T10:06:42.270Z,40.40
2019-04-26T10:09:42.673Z,40.40
2019-04-26T10:12:57.484Z,40.20
2019-04-26T10:16:17.123Z,40.10
2019-04-26T10:19:16.341Z,39.90
2019-04-26T10:22:25.562Z,39.80
2019-04-26T10:25:55.625Z,39.70
2019-04-26T10:28:53.699Z,39.70
2019-04-26T10:31:58.402Z,39.70
2019-04-26T10:39:37.001Z,39.40
2019-04-26T10:57:25.936Z,39.00
2019-04-26T11:00:52.530Z,38.80
2019-04-26T11:03:48.400Z,38.80
2019-04-26T11:10:29.218Z,38.70
2019-04-26T11:13:35.936Z,38.60
2019-04-26T11:16:37.163Z,38.80
2019-04-26T11:19:35.507Z,38.60
2019-04-26T11:22:33.386Z,38.50
2019-04-26T11:25:29.537Z,38.70
2019-04-26T11:28:29.589Z,38.40
2019-04-26T11:37:50.460Z,37.90
